createdAt,value
2018-09-22T00:01:06.634Z,13.93
2018-09-22T00:03:34.808Z,13.93
2018-09-22T00:06:03.103Z,13.87
2018-09-22T00:08:31.253Z,13.95
2018-09-22T00:10:59.457Z,13.81
2018-09-22T00:13:27.709Z,13.62
2018-09-22T00:15:56.041Z,13.83
2018-09-22T00:18:24.262Z,13.77
2018-09-22T00:20:52.443Z,13.91
2018-09-22T00:23:20.692Z,13.95
2018-09-22T00:25:48.881Z,13.98
2018-09-22T00:28:17.048Z,13.91
2018-09-22T00:30:45.209Z,13.77
2018-09-22T00:33:13.374Z,13.84
2018-09-22T00:35:41.546Z,13.95
2018-09-22T00:38:12.744Z,13.88
2018-09-22T00:40:41.100Z,13.86
2018-09-22T00:43:09.808Z,13.80
2018-09-22T00:45:38.062Z,13.98
2018-09-22T00:48:06.241Z,14.04
2018-09-22T00:50:34.539Z,14.00
2018-09-22T00:53:02.819Z,14.01
2018-09-22T00:55:31.006Z,14.03
2018-09-22T00:57:59.137Z,14.00
2018-09-22T01:00:27.308Z,13.88
2018-09-22T01:02:55.564Z,14.09
2018-09-22T01:05:23.878Z,14.15
2018-09-22T01:07:52.114Z,13.96
2018-09-22T01:10:20.300Z,13.88
2018-09-22T01:12:48.564Z,13.88
2018-09-22T01:15:16.734Z,13.93
2018-09-22T01:17:44.964Z,13.80
2018-09-22T01:20:13.287Z,13.85
2018-09-22T01:22:41.480Z,13.82
2018-09-22T01:25:09.734Z,13.74
2018-09-22T01:27:38.142Z,13.83
2018-09-22T01:30:06.349Z,13.72
2018-09-22T01:32:34.520Z,13.72
2018-09-22T01:35:02.741Z,13.73
2018-09-22T01:37:30.970Z,13.66
2018-09-22T01:39:59.166Z,13.66
2018-09-22T01:42:27.327Z,13.73
2018-09-22T01:44:55.474Z,13.77
2018-09-22T01:47:23.643Z,13.91
2018-09-22T01:49:52.452Z,13.93
2018-09-22T01:52:20.644Z,13.91
2018-09-22T01:54:49.792Z,14.04
2018-09-22T01:57:17.981Z,13.81
2018-09-22T01:59:46.172Z,13.74
2018-09-22T02:02:14.354Z,13.66
2018-09-22T02:04:42.569Z,13.72
2018-09-22T02:07:10.717Z,13.71
2018-09-22T02:09:38.835Z,13.61
2018-09-22T02:12:07.078Z,13.54
2018-09-22T02:14:35.287Z,13.50
2018-09-22T02:17:03.468Z,13.26
2018-09-22T02:19:31.625Z,13.34
2018-09-22T02:21:59.878Z,13.43
2018-09-22T02:24:28.104Z,13.50
2018-09-22T02:26:56.342Z,13.32
2018-09-22T02:29:24.564Z,13.38
2018-09-22T02:31:52.790Z,13.17
2018-09-22T02:34:21.001Z,13.30
2018-09-22T02:36:49.208Z,13.21
2018-09-22T02:39:17.338Z,13.27
2018-09-22T02:41:45.430Z,13.34
2018-09-22T02:44:13.677Z,13.34
2018-09-22T02:46:41.835Z,13.37
2018-09-22T02:49:10.010Z,13.29
2018-09-22T02:51:38.147Z,13.22
2018-09-22T02:54:06.304Z,13.30
2018-09-22T02:56:34.489Z,13.40
2018-09-22T02:59:02.687Z,13.27
2018-09-22T03:01:30.888Z,13.21
2018-09-22T03:03:59.069Z,13.15
2018-09-22T03:06:27.257Z,13.17
2018-09-22T03:08:55.458Z,13.17
2018-09-22T03:11:23.619Z,13.14
2018-09-22T03:13:51.841Z,13.00
2018-09-22T03:16:20.041Z,13.08
2018-09-22T03:18:48.466Z,12.98
2018-09-22T03:21:16.808Z,13.05
2018-09-22T03:23:44.970Z,13.25
2018-09-22T03:26:13.145Z,13.31
2018-09-22T03:28:41.821Z,13.33
2018-09-22T03:31:10.228Z,13.41
2018-09-22T03:33:38.380Z,13.35
2018-09-22T03:36:06.534Z,13.28
2018-09-22T03:38:34.730Z,13.29
2018-09-22T03:41:02.904Z,13.16
2018-09-22T03:43:31.179Z,13.14
2018-09-22T03:45:59.470Z,12.95
2018-09-22T03:48:28.351Z,13.09
2018-09-22T03:50:56.556Z,12.99
2018-09-22T03:53:24.701Z,12.97
2018-09-22T03:55:52.909Z,12.90
2018-09-22T03:58:21.064Z,12.82
2018-09-22T04:00:49.299Z,12.91
2018-09-22T04:03:17.458Z,12.96
2018-09-22T04:05:46.277Z,12.86
2018-09-22T04:08:14.427Z,12.98
2018-09-22T04:10:42.642Z,12.93
2018-09-22T04:13:10.811Z,12.81
2018-09-22T04:15:38.978Z,12.80
2018-09-22T04:18:07.462Z,12.75
2018-09-22T04:20:35.633Z,12.66
2018-09-22T04:23:03.807Z,12.80
2018-09-22T04:25:32.014Z,12.66
2018-09-22T04:28:00.196Z,12.61
2018-09-22T04:30:28.340Z,12.67
2018-09-22T04:32:56.507Z,12.60
2018-09-22T04:35:24.688Z,12.56
2018-09-22T04:37:52.954Z,12.45
2018-09-22T04:40:21.222Z,12.49
2018-09-22T04:42:49.408Z,12.56
2018-09-22T04:45:17.683Z,12.68
2018-09-22T04:47:45.938Z,12.59
2018-09-22T04:50:14.144Z,12.72
2018-09-22T04:52:42.334Z,12.70
2018-09-22T04:55:10.480Z,12.72
2018-09-22T04:57:38.814Z,12.80
2018-09-22T05:00:07.820Z,12.91
2018-09-22T05:02:36.043Z,12.79
2018-09-22T05:05:04.484Z,12.93
2018-09-22T05:07:32.655Z,12.87
2018-09-22T05:10:00.849Z,12.92
2018-09-22T05:12:29.496Z,12.93
2018-09-22T05:14:57.750Z,13.01
2018-09-22T05:17:25.922Z,13.00
2018-09-22T05:19:54.176Z,13.08
2018-09-22T05:22:22.388Z,13.24
2018-09-22T05:24:50.655Z,13.23
2018-09-22T05:27:18.924Z,13.02
2018-09-22T05:29:47.119Z,12.63
2018-09-22T05:32:15.280Z,12.50
2018-09-22T05:34:43.514Z,12.43
2018-09-22T05:37:11.686Z,12.25
2018-09-22T05:39:39.849Z,12.26
2018-09-22T05:42:07.970Z,12.35
2018-09-22T05:44:36.783Z,12.43
2018-09-22T05:47:05.135Z,12.38
2018-09-22T05:49:33.364Z,12.51
2018-09-22T05:52:01.509Z,12.41
2018-09-22T05:54:29.653Z,12.46
2018-09-22T05:56:57.839Z,12.45
2018-09-22T05:59:32.847Z,12.50
2018-09-22T06:02:01.105Z,12.40
2018-09-22T06:04:29.372Z,12.43
2018-09-22T06:06:57.536Z,12.51
2018-09-22T06:09:25.711Z,12.68
2018-09-22T06:11:53.943Z,12.73
2018-09-22T06:14:22.154Z,12.69
2018-09-22T06:16:50.337Z,12.77
2018-09-22T06:19:18.575Z,12.87
2018-09-22T06:21:46.713Z,12.79
2018-09-22T06:24:14.879Z,12.90
2018-09-22T06:26:43.128Z,13.09
2018-09-22T06:29:11.338Z,13.04
2018-09-22T06:31:39.485Z,13.21
2018-09-22T06:34:07.710Z,13.18
2018-09-22T06:36:35.981Z,13.34
2018-09-22T06:39:05.809Z,13.27
2018-09-22T06:41:34.074Z,13.41
2018-09-22T06:44:02.379Z,13.49
2018-09-22T06:46:30.606Z,13.46
2018-09-22T06:48:58.744Z,13.48
2018-09-22T06:51:27.023Z,13.63
2018-09-22T06:53:55.991Z,13.70
2018-09-22T06:56:24.265Z,13.81
2018-09-22T06:58:59.230Z,13.84
2018-09-22T07:01:27.403Z,13.93
2018-09-22T07:03:55.534Z,14.03
2018-09-22T07:06:23.708Z,14.10
2018-09-22T07:08:52.394Z,14.00
2018-09-22T07:11:20.643Z,14.01
2018-09-22T07:13:49.573Z,14.07
2018-09-22T07:16:17.745Z,14.07
2018-09-22T07:18:45.979Z,14.26
2018-09-22T07:21:14.507Z,14.24
2018-09-22T07:23:42.702Z,14.10
2018-09-22T07:26:10.978Z,14.08
2018-09-22T07:28:39.151Z,14.40
2018-09-22T07:31:07.839Z,14.70
2018-09-22T07:33:36.303Z,14.70
2018-09-22T07:36:04.464Z,14.71
2018-09-22T07:38:33.192Z,14.75
2018-09-22T07:41:01.414Z,14.80
2018-09-22T07:43:29.685Z,14.67
2018-09-22T07:45:58.487Z,14.60
2018-09-22T07:48:26.691Z,14.65
2018-09-22T07:50:54.909Z,14.95
2018-09-22T07:53:23.150Z,14.93
2018-09-22T07:55:51.292Z,15.33
2018-09-22T07:58:19.507Z,15.27
2018-09-22T08:00:47.729Z,15.42
2018-09-22T08:03:16.024Z,15.30
2018-09-22T08:05:44.197Z,15.26
2018-09-22T08:08:12.574Z,15.04
2018-09-22T08:10:40.791Z,15.09
2018-09-22T08:13:09.031Z,15.19
2018-09-22T08:15:37.371Z,15.29
2018-09-22T08:18:05.579Z,15.42
2018-09-22T08:20:33.752Z,15.54
2018-09-22T08:23:03.699Z,15.22
2018-09-22T08:25:32.093Z,15.29
2018-09-22T08:28:00.341Z,15.27
2018-09-22T08:30:29.335Z,15.31
2018-09-22T08:32:58.348Z,15.31
2018-09-22T08:35:27.503Z,15.39
2018-09-22T08:37:55.766Z,15.48
2018-09-22T08:40:23.940Z,15.47
2018-09-22T08:42:52.104Z,15.64
2018-09-22T08:45:20.357Z,15.66
2018-09-22T08:47:48.552Z,15.68
2018-09-22T08:50:16.782Z,15.83
2018-09-22T08:52:45.071Z,15.88
2018-09-22T08:55:13.275Z,16.13
2018-09-22T08:57:41.483Z,16.23
2018-09-22T09:00:09.702Z,16.40
2018-09-22T09:02:37.956Z,16.37
2018-09-22T09:05:06.294Z,16.55
2018-09-22T09:07:35.192Z,16.45
2018-09-22T09:10:03.420Z,16.54
2018-09-22T09:12:31.682Z,16.63
2018-09-22T09:15:00.002Z,16.39
2018-09-22T09:17:28.158Z,16.62
2018-09-22T09:19:56.396Z,16.47
2018-09-22T09:22:24.780Z,16.35
2018-09-22T09:24:53.008Z,16.55
2018-09-22T09:27:21.219Z,16.54
2018-09-22T09:29:49.511Z,16.47
2018-09-22T09:32:18.301Z,16.43
2018-09-22T09:34:47.489Z,16.40
2018-09-22T09:37:15.638Z,16.13
2018-09-22T09:39:43.940Z,16.41
2018-09-22T09:42:12.173Z,16.57
2018-09-22T09:44:40.365Z,16.75
2018-09-22T09:47:08.595Z,16.81
2018-09-22T09:49:36.824Z,16.70
2018-09-22T09:52:05.049Z,16.68
2018-09-22T09:54:34.056Z,16.67
2018-09-22T09:57:13.416Z,16.46
2018-09-22T09:59:41.676Z,16.44
2018-09-22T10:02:10.029Z,16.46
2018-09-22T10:04:38.869Z,16.34
2018-09-22T10:07:07.174Z,16.42
2018-09-22T10:09:35.348Z,16.78
2018-09-22T10:12:03.568Z,16.71
2018-09-22T10:14:32.148Z,16.94
2018-09-22T10:17:00.917Z,17.17
2018-09-22T10:19:30.203Z,17.12
2018-09-22T10:21:58.530Z,17.18
2018-09-22T10:24:27.226Z,17.31
2018-09-22T10:26:55.406Z,17.16
2018-09-22T10:29:23.558Z,17.31
2018-09-22T10:31:51.888Z,17.37
2018-09-22T10:34:20.092Z,17.26
2018-09-22T10:36:48.255Z,17.08
2018-09-22T10:39:16.533Z,17.15
2018-09-22T10:41:55.529Z,17.09
2018-09-22T10:44:24.433Z,17.12
2018-09-22T10:46:52.747Z,17.20
2018-09-22T10:49:21.795Z,17.18
2018-09-22T10:51:50.705Z,17.16
2018-09-22T10:54:19.260Z,17.33
2018-09-22T10:56:47.621Z,17.24
2018-09-22T10:59:15.916Z,17.30
2018-09-22T11:01:45.056Z,17.27
2018-09-22T11:04:13.392Z,17.41
2018-09-22T11:06:41.655Z,17.44
2018-09-22T11:09:09.855Z,17.52
2018-09-22T11:11:38.092Z,17.69
2018-09-22T11:14:06.415Z,17.77
2018-09-22T11:16:34.574Z,17.96
2018-09-22T11:19:02.981Z,17.68
2018-09-22T11:21:31.399Z,17.62
2018-09-22T11:23:59.663Z,17.85
2018-09-22T11:26:27.904Z,17.95
2018-09-22T11:28:56.978Z,17.94
2018-09-22T11:31:25.209Z,18.04
2018-09-22T11:33:53.388Z,18.30
2018-09-22T11:36:21.621Z,18.57
2018-09-22T11:38:49.803Z,18.47
2018-09-22T11:41:18.078Z,18.71
2018-09-22T11:43:46.376Z,18.89
2018-09-22T11:46:14.542Z,19.07
2018-09-22T11:48:42.744Z,18.99
2018-09-22T11:51:10.907Z,18.84
2018-09-22T11:53:39.172Z,18.87
2018-09-22T11:56:07.332Z,18.71
2018-09-22T11:58:35.552Z,18.38
2018-09-22T12:01:03.853Z,18.27
2018-09-22T12:03:31.996Z,18.25
2018-09-22T12:06:00.329Z,17.96
2018-09-22T12:08:28.483Z,18.12
2018-09-22T12:10:56.872Z,18.03
2018-09-22T12:13:25.067Z,18.08
2018-09-22T12:15:53.272Z,17.96
2018-09-22T12:18:21.476Z,17.95
2018-09-22T12:20:49.681Z,17.92
2018-09-22T12:23:17.927Z,18.01
2018-09-22T12:25:46.237Z,17.97
2018-09-22T12:28:14.997Z,18.14
2018-09-22T12:30:43.248Z,18.14
2018-09-22T12:33:11.469Z,18.13
2018-09-22T12:35:39.725Z,18.28
2018-09-22T12:38:07.963Z,18.29
2018-09-22T12:40:36.585Z,18.46
2018-09-22T12:43:04.858Z,18.54
2018-09-22T12:45:33.608Z,18.47
2018-09-22T12:48:02.566Z,18.46
2018-09-22T12:50:37.601Z,18.64
2018-09-22T12:53:05.916Z,18.48
2018-09-22T12:55:34.193Z,18.56
2018-09-22T12:58:02.365Z,18.74
2018-09-22T13:00:30.642Z,18.83
2018-09-22T13:02:59.193Z,18.75
2018-09-22T13:05:28.795Z,18.61
2018-09-22T13:07:57.042Z,18.66
2018-09-22T13:10:25.345Z,18.58
2018-09-22T13:12:53.728Z,18.55
2018-09-22T13:15:22.107Z,18.55
2018-09-22T13:17:50.393Z,18.48
2018-09-22T13:20:20.693Z,18.45
2018-09-22T13:22:48.979Z,18.46
2018-09-22T13:25:17.780Z,18.50
2018-09-22T13:27:46.003Z,18.57
2018-09-22T13:30:14.221Z,18.76
2018-09-22T13:32:42.565Z,18.87
2018-09-22T13:35:10.760Z,18.81
2018-09-22T13:37:39.017Z,18.87
2018-09-22T13:40:07.279Z,18.94
2018-09-22T13:42:35.544Z,18.76
2018-09-22T13:45:03.682Z,18.71
2018-09-22T13:47:31.874Z,18.58
2018-09-22T13:50:00.280Z,18.52
2018-09-22T13:52:28.644Z,18.69
2018-09-22T13:54:56.862Z,18.77
2018-09-22T13:57:25.211Z,18.68
2018-09-22T13:59:57.938Z,18.68
2018-09-22T14:02:26.234Z,18.85
2018-09-22T14:05:00.061Z,18.88
2018-09-22T14:07:28.272Z,18.70
2018-09-22T14:09:56.633Z,18.82
2018-09-22T14:12:25.013Z,18.92
2018-09-22T14:14:53.658Z,18.86
2018-09-22T14:17:21.856Z,18.86
2018-09-22T14:19:50.619Z,18.81
2018-09-22T14:22:18.818Z,18.85
2018-09-22T14:24:47.006Z,18.83
2018-09-22T14:27:15.254Z,18.79
2018-09-22T14:29:44.721Z,18.73
2018-09-22T14:32:13.466Z,18.77
2018-09-22T14:34:41.696Z,18.94
2018-09-22T14:37:09.963Z,18.82
2018-09-22T14:39:40.386Z,18.78
2018-09-22T14:42:08.723Z,18.71
2018-09-22T14:44:37.774Z,18.47
2018-09-22T14:47:06.868Z,18.49
2018-09-22T14:49:35.089Z,18.65
2018-09-22T14:52:04.219Z,18.54
2018-09-22T14:54:33.733Z,18.47
2018-09-22T14:57:01.964Z,18.46
2018-09-22T14:59:30.117Z,18.45
2018-09-22T15:01:58.284Z,18.48
2018-09-22T15:04:26.727Z,18.43
2018-09-22T15:06:55.505Z,18.59
2018-09-22T15:09:31.914Z,18.55
2018-09-22T15:12:02.403Z,18.68
2018-09-22T15:14:30.831Z,18.82
2018-09-22T15:16:59.952Z,18.77
2018-09-22T15:19:29.557Z,18.79
2018-09-22T15:21:57.790Z,18.52
2018-09-22T15:24:26.096Z,18.74
2018-09-22T15:26:54.314Z,18.80
2018-09-22T15:29:28.707Z,18.61
2018-09-22T15:31:57.576Z,18.53
2018-09-22T15:37:02.863Z,18.34
2018-09-22T15:39:31.148Z,18.21
2018-09-22T15:41:59.429Z,18.21
2018-09-22T15:44:27.882Z,18.26
2018-09-22T15:46:58.713Z,18.18
2018-09-22T15:49:29.113Z,18.27
2018-09-22T15:51:57.514Z,18.19
2018-09-22T15:54:26.394Z,18.11
2018-09-22T15:56:54.559Z,18.09
2018-09-22T15:59:22.747Z,18.06
2018-09-22T16:01:50.958Z,17.88
2018-09-22T16:04:19.376Z,17.94
2018-09-22T16:06:47.719Z,17.83
2018-09-22T16:09:21.685Z,17.83
2018-09-22T16:11:50.622Z,17.69
2018-09-22T16:14:18.943Z,17.65
2018-09-22T16:16:47.142Z,17.52
2018-09-22T16:19:15.371Z,17.51
2018-09-22T16:21:43.911Z,17.56
2018-09-22T16:24:13.250Z,17.55
2018-09-22T16:26:41.393Z,17.58
2018-09-22T16:29:09.679Z,17.51
2018-09-22T16:31:38.719Z,17.53
2018-09-22T16:34:10.037Z,17.37
2018-09-22T16:36:38.447Z,17.37
2018-09-22T16:39:07.920Z,17.37
2018-09-22T16:41:36.841Z,17.29
2018-09-22T16:44:05.899Z,17.21
2018-09-22T16:46:34.647Z,17.20
2018-09-22T16:49:02.988Z,17.20
2018-09-22T16:51:31.592Z,17.16
2018-09-22T16:53:59.889Z,17.11
2018-09-22T16:56:28.440Z,17.17
2018-09-22T16:59:01.111Z,17.11
2018-09-22T17:01:31.800Z,17.18
2018-09-22T17:04:00.104Z,17.09
2018-09-22T17:06:28.314Z,17.08
2018-09-22T17:08:57.063Z,16.99
2018-09-22T17:11:30.947Z,16.91
2018-09-22T17:13:59.382Z,16.84
2018-09-22T17:16:28.693Z,16.87
2018-09-22T17:18:57.359Z,16.83
2018-09-22T17:21:28.971Z,16.87
2018-09-22T17:23:59.169Z,16.70
2018-09-22T17:26:27.609Z,16.71
2018-09-22T17:28:55.793Z,16.63
2018-09-22T17:31:24.332Z,16.69
2018-09-22T17:33:53.132Z,16.71
2018-09-22T17:36:21.476Z,16.62
2018-09-22T17:41:26.083Z,16.65
2018-09-22T17:43:54.340Z,16.56
2018-09-22T17:46:22.536Z,16.54
2018-09-22T17:48:53.920Z,16.48
2018-09-22T17:51:25.909Z,16.63
2018-09-22T17:53:59.484Z,16.60
2018-09-22T17:56:27.754Z,16.62
2018-09-22T17:58:55.969Z,16.56
2018-09-22T18:01:29.233Z,16.43
2018-09-22T18:03:58.018Z,16.45
2018-09-22T18:06:26.157Z,16.44
2018-09-22T18:08:54.570Z,16.42
2018-09-22T18:11:22.812Z,16.44
2018-09-22T18:13:51.323Z,16.44
2018-09-22T18:16:19.540Z,16.53
2018-09-22T18:18:47.804Z,16.56
2018-09-22T18:21:16.636Z,16.49
2018-09-22T18:23:44.849Z,16.44
2018-09-22T18:26:13.060Z,16.51
2018-09-22T18:28:41.298Z,16.58
2018-09-22T18:31:09.540Z,16.44
2018-09-22T18:33:37.752Z,16.44
2018-09-22T18:36:06.506Z,16.58
2018-09-22T18:38:34.710Z,16.43
2018-09-22T18:41:02.978Z,16.40
2018-09-22T18:43:31.266Z,16.41
2018-09-22T18:46:04.588Z,16.52
2018-09-22T18:48:32.932Z,16.44
2018-09-22T18:51:01.157Z,16.51
2018-09-22T18:53:30.138Z,16.50
2018-09-22T18:55:58.576Z,16.61
2018-09-22T18:58:27.058Z,16.50
2018-09-22T19:00:55.203Z,16.35
2018-09-22T19:03:23.403Z,16.19
2018-09-22T19:05:51.779Z,16.17
2018-09-22T19:08:19.918Z,16.18
2018-09-22T19:10:48.114Z,16.09
2018-09-22T19:13:20.519Z,15.98
2018-09-22T19:15:51.519Z,15.75
2018-09-22T19:18:24.792Z,15.69
2018-09-22T19:20:56.535Z,15.66
2018-09-22T19:23:31.099Z,15.59
2018-09-22T19:26:13.210Z,15.52
2018-09-22T19:29:48.226Z,15.53
2018-09-22T19:32:27.540Z,15.48
2018-09-22T19:37:36.117Z,15.10
2018-09-22T19:40:14.721Z,15.05
2018-09-22T19:42:46.709Z,15.21
2018-09-22T19:45:26.378Z,15.31
2018-09-22T19:48:00.149Z,15.36
2018-09-22T19:50:36.863Z,15.31
2018-09-22T19:53:05.418Z,15.29
2018-09-22T19:55:33.903Z,15.24
2018-09-22T19:58:02.609Z,15.14
2018-09-22T20:00:32.280Z,15.11
2018-09-22T20:03:00.573Z,15.14
2018-09-22T20:05:28.817Z,15.16
2018-09-22T20:07:57.226Z,15.11
2018-09-22T20:10:25.458Z,15.11
2018-09-22T20:12:54.802Z,15.17
2018-09-22T20:15:23.033Z,15.12
2018-09-22T20:17:51.334Z,14.93
2018-09-22T20:20:19.636Z,15.01
2018-09-22T20:22:48.017Z,14.86
2018-09-22T20:25:16.900Z,14.89
2018-09-22T20:27:45.380Z,14.78
2018-09-22T20:30:13.829Z,14.67
2018-09-22T20:32:42.131Z,14.82
2018-09-22T20:35:10.415Z,14.80
2018-09-22T20:37:38.784Z,14.78
2018-09-22T20:40:07.650Z,14.65
2018-09-22T20:42:35.936Z,14.48
2018-09-22T20:45:04.255Z,14.58
2018-09-22T20:47:32.486Z,14.50
2018-09-22T20:50:00.781Z,14.50
2018-09-22T20:52:28.971Z,14.38
2018-09-22T20:54:57.252Z,14.45
2018-09-22T20:57:25.724Z,14.42
2018-09-22T20:59:54.021Z,14.38
2018-09-22T21:02:22.440Z,14.45
2018-09-22T21:04:50.881Z,14.38
2018-09-22T21:07:19.135Z,14.36
2018-09-22T21:09:47.377Z,14.31
2018-09-22T21:12:15.591Z,14.44
2018-09-22T21:14:43.866Z,14.37
2018-09-22T21:17:12.133Z,14.48
2018-09-22T21:19:40.374Z,14.30
2018-09-22T21:22:08.590Z,14.35
2018-09-22T21:24:36.886Z,14.25
2018-09-22T21:27:05.083Z,14.26
2018-09-22T21:29:40.123Z,14.24
2018-09-22T21:32:08.304Z,14.23
2018-09-22T21:34:36.532Z,14.28
2018-09-22T21:37:04.914Z,14.27
2018-09-22T21:39:33.116Z,14.20
2018-09-22T21:42:01.366Z,14.18
2018-09-22T21:44:30.363Z,14.26
2018-09-22T21:46:58.499Z,14.10
2018-09-22T21:49:26.885Z,14.01
2018-09-22T21:51:55.281Z,13.99
2018-09-22T21:54:23.457Z,14.01
2018-09-22T21:56:51.741Z,13.79
2018-09-22T21:59:19.912Z,13.89
2018-09-22T22:01:48.126Z,13.66
2018-09-22T22:04:16.500Z,13.63
2018-09-22T22:06:44.831Z,13.74
2018-09-22T22:09:14.245Z,13.64
2018-09-22T22:11:42.605Z,13.52
2018-09-22T22:14:11.231Z,13.43
2018-09-22T22:16:40.148Z,13.52
2018-09-22T22:19:08.770Z,13.57
2018-09-22T22:21:36.945Z,13.46
2018-09-22T22:24:05.315Z,13.39
2018-09-22T22:26:33.604Z,13.56
2018-09-22T22:29:01.755Z,13.45
2018-09-22T22:31:30.003Z,13.35
2018-09-22T22:33:58.220Z,13.38
2018-09-22T22:36:26.517Z,13.28
2018-09-22T22:38:54.669Z,13.23
2018-09-22T22:41:23.013Z,13.37
2018-09-22T22:43:51.221Z,13.23
2018-09-22T22:46:19.554Z,13.26
2018-09-22T22:48:47.815Z,13.40
2018-09-22T22:51:16.056Z,13.29
2018-09-22T22:53:44.257Z,13.33
2018-09-22T22:56:12.434Z,13.31
2018-09-22T22:58:40.650Z,13.33
2018-09-22T23:01:09.115Z,13.44
2018-09-22T23:03:37.245Z,13.48
2018-09-22T23:06:05.399Z,13.47
2018-09-22T23:08:33.699Z,13.41
2018-09-22T23:11:08.628Z,13.23
2018-09-22T23:13:36.895Z,13.30
2018-09-22T23:16:05.059Z,13.34
2018-09-22T23:18:33.224Z,13.26
2018-09-22T23:21:01.575Z,13.34
2018-09-22T23:23:29.865Z,13.23
2018-09-22T23:25:58.133Z,13.21
2018-09-22T23:28:26.314Z,13.34
2018-09-22T23:30:54.607Z,13.23
2018-09-22T23:33:22.867Z,13.22
2018-09-22T23:35:51.010Z,13.28
2018-09-22T23:38:19.163Z,13.35
2018-09-22T23:40:47.353Z,13.30
2018-09-22T23:43:15.470Z,13.20
2018-09-22T23:45:43.724Z,13.30
2018-09-22T23:48:12.051Z,13.22
2018-09-22T23:50:40.189Z,13.35
2018-09-22T23:53:08.352Z,13.26
2018-09-22T23:55:36.532Z,13.24
2018-09-22T23:58:05.373Z,13.04
